sensor_id;sensor_type;location;lat;lon;timestamp;temperature;humidity
25753;DHT22;13600;50.816;4.416;2023-04-25T00:01:04;11.20;99.90
25753;DHT22;13600;50.816;4.416;2023-04-25T00:03:34;11.10;99.90
25753;DHT22;13600;50.816;4.416;2023-04-25T00:06:00;11.20;99.90
25753;DHT22;13600;50.816;4.416;2023-04-25T00:08:29;11.30;99.90
25753;DHT22;13600;50.816;4.416;2023-04-25T00:10:56;11.40;99.90
25753;DHT22;13600;50.816;4.416;2023-04-25T00:13:22;11.40;99.90
25753;DHT22;13600;50.816;4.416;2023-04-25T00:15:47;11.40;99.90
25753;DHT22;13600;50.816;4.416;2023-04-25T00:18:14;11.40;99.90
25753;DHT22;13600;50.816;4.416;2023-04-25T00:20:39;11.40;99.90
25753;DHT22;13600;50.816;4.416;2023-04-25T00:23:05;11.50;99.90
25753;DHT22;13600;50.816;4.416;2023-04-25T00:25:31;11.40;99.90
25753;DHT22;13600;50.816;4.416;2023-04-25T00:27:56;11.20;99.90
25753;DHT22;13600;50.816;4.416;2023-04-25T00:30:22;11.00;99.90
25753;DHT22;13600;50.816;4.416;2023-04-25T00:32:47;11.10;99.90
25753;DHT22;13600;50.816;4.416;2023-04-25T00:35:14;11.20;99.90
25753;DHT22;13600;50.816;4.416;2023-04-25T00:37:39;11.30;99.90
25753;DHT22;13600;50.816;4.416;2023-04-25T00:40:05;11.30;99.90
25753;DHT22;13600;50.816;4.416;2023-04-25T00:42:31;11.30;99.90
25753;DHT22;13600;50.816;4.416;2023-04-25T00:44:58;11.40;99.90
25753;DHT22;13600;50.816;4.416;2023-04-25T00:47:23;11.40;99.90
25753;DHT22;13600;50.816;4.416;2023-04-25T00:49:49;11.40;99.90
25753;DHT22;13600;50.816;4.416;2023-04-25T00:52:15;11.30;99.90
25753;DHT22;13600;50.816;4.416;2023-04-25T00:54:40;11.20;99.90
25753;DHT22;13600;50.816;4.416;2023-04-25T00:57:07;11.10;99.90
25753;DHT22;13600;50.816;4.416;2023-04-25T00:59:32;11.10;99.90
25753;DHT22;13600;50.816;4.416;2023-04-25T01:01:58;11.20;99.90
25753;DHT22;13600;50.816;4.416;2023-04-25T01:04:24;11.30;99.90
25753;DHT22;13600;50.816;4.416;2023-04-25T01:06:50;11.20;99.90
25753;DHT22;13600;50.816;4.416;2023-04-25T01:09:16;11.20;99.90
25753;DHT22;13600;50.816;4.416;2023-04-25T01:11:42;11.10;99.90
25753;DHT22;13600;50.816;4.416;2023-04-25T01:14:07;11.10;99.90
25753;DHT22;13600;50.816;4.416;2023-04-25T01:16:33;11.00;99.90
25753;DHT22;13600;50.816;4.416;2023-04-25T01:18:59;11.00;99.90
25753;DHT22;13600;50.816;4.416;2023-04-25T01:21:24;11.10;99.90
25753;DHT22;13600;50.816;4.416;2023-04-25T01:23:52;11.00;99.90
25753;DHT22;13600;50.816;4.416;2023-04-25T01:26:19;10.90;99.90
25753;DHT22;13600;50.816;4.416;2023-04-25T01:28:46;10.90;99.90
25753;DHT22;13600;50.816;4.416;2023-04-25T01:31:12;11.00;99.90
25753;DHT22;13600;50.816;4.416;2023-04-25T01:33:38;10.90;99.90
25753;DHT22;13600;50.816;4.416;2023-04-25T01:36:04;10.90;99.90
25753;DHT22;13600;50.816;4.416;2023-04-25T01:38:29;10.90;99.90
25753;DHT22;13600;50.816;4.416;2023-04-25T01:40:55;10.80;99.90
25753;DHT22;13600;50.816;4.416;2023-04-25T01:43:21;10.80;99.90
25753;DHT22;13600;50.816;4.416;2023-04-25T01:45:47;10.70;99.90
25753;DHT22;13600;50.816;4.416;2023-04-25T01:48:13;10.70;99.90
25753;DHT22;13600;50.816;4.416;2023-04-25T01:50:39;10.70;99.90
25753;DHT22;13600;50.816;4.416;2023-04-25T01:53:05;10.60;99.90
25753;DHT22;13600;50.816;4.416;2023-04-25T01:55:31;10.50;99.90
25753;DHT22;13600;50.816;4.416;2023-04-25T01:57:56;10.30;99.90
25753;DHT22;13600;50.816;4.416;2023-04-25T02:00:22;10.30;99.90
25753;DHT22;13600;50.816;4.416;2023-04-25T02:02:48;10.40;99.90
25753;DHT22;13600;50.816;4.416;2023-04-25T02:05:16;10.50;99.90
25753;DHT22;13600;50.816;4.416;2023-04-25T02:07:42;10.70;99.90
25753;DHT22;13600;50.816;4.416;2023-04-25T02:10:08;10.80;99.90
25753;DHT22;13600;50.816;4.416;2023-04-25T02:12:35;10.50;99.90
25753;DHT22;13600;50.816;4.416;2023-04-25T02:15:00;10.30;99.90
25753;DHT22;13600;50.816;4.416;2023-04-25T02:17:26;10.30;99.90
25753;DHT22;13600;50.816;4.416;2023-04-25T02:19:51;10.30;99.90
25753;DHT22;13600;50.816;4.416;2023-04-25T02:22:17;10.40;99.90
25753;DHT22;13600;50.816;4.416;2023-04-25T02:24:42;10.40;99.90
25753;DHT22;13600;50.816;4.416;2023-04-25T02:27:08;10.40;99.90
25753;DHT22;13600;50.816;4.416;2023-04-25T02:29:34;10.50;99.90
25753;DHT22;13600;50.816;4.416;2023-04-25T02:32:00;10.40;99.90
25753;DHT22;13600;50.816;4.416;2023-04-25T02:34:25;10.50;99.90
25753;DHT22;13600;50.816;4.416;2023-04-25T02:36:51;10.50;99.90
25753;DHT22;13600;50.816;4.416;2023-04-25T02:39:18;10.60;99.90
25753;DHT22;13600;50.816;4.416;2023-04-25T02:41:44;10.50;99.90
25753;DHT22;13600;50.816;4.416;2023-04-25T02:44:09;10.60;99.90
25753;DHT22;13600;50.816;4.416;2023-04-25T02:46:35;10.40;99.90
25753;DHT22;13600;50.816;4.416;2023-04-25T02:49:01;10.40;99.90
25753;DHT22;13600;50.816;4.416;2023-04-25T02:51:26;10.40;99.90
25753;DHT22;13600;50.816;4.416;2023-04-25T02:53:52;10.40;99.90
25753;DHT22;13600;50.816;4.416;2023-04-25T02:56:17;10.40;99.90
25753;DHT22;13600;50.816;4.416;2023-04-25T02:58:43;10.50;99.90
25753;DHT22;13600;50.816;4.416;2023-04-25T03:01:10;10.50;99.90
25753;DHT22;13600;50.816;4.416;2023-04-25T03:03:35;10.50;99.90
25753;DHT22;13600;50.816;4.416;2023-04-25T03:06:01;10.50;99.90
25753;DHT22;13600;50.816;4.416;2023-04-25T03:08:27;10.50;99.90
25753;DHT22;13600;50.816;4.416;2023-04-25T03:10:57;10.50;99.90
25753;DHT22;13600;50.816;4.416;2023-04-25T03:13:23;10.40;99.90
25753;DHT22;13600;50.816;4.416;2023-04-25T03:15:49;10.20;99.90
25753;DHT22;13600;50.816;4.416;2023-04-25T03:18:15;10.20;99.90
25753;DHT22;13600;50.816;4.416;2023-04-25T03:20:40;10.30;99.90
25753;DHT22;13600;50.816;4.416;2023-04-25T03:23:07;10.30;99.90
25753;DHT22;13600;50.816;4.416;2023-04-25T03:25:32;10.30;99.90
25753;DHT22;13600;50.816;4.416;2023-04-25T03:27:58;10.40;99.90
25753;DHT22;13600;50.816;4.416;2023-04-25T03:30:23;10.40;99.90
25753;DHT22;13600;50.816;4.416;2023-04-25T03:32:49;10.40;99.90
25753;DHT22;13600;50.816;4.416;2023-04-25T03:35:15;10.20;99.90
25753;DHT22;13600;50.816;4.416;2023-04-25T03:37:40;10.10;99.90
25753;DHT22;13600;50.816;4.416;2023-04-25T03:40:06;9.90;99.90
25753;DHT22;13600;50.816;4.416;2023-04-25T03:42:32;10.00;99.90
25753;DHT22;13600;50.816;4.416;2023-04-25T03:44:57;10.10;99.90
25753;DHT22;13600;50.816;4.416;2023-04-25T03:47:23;10.20;99.90
25753;DHT22;13600;50.816;4.416;2023-04-25T03:49:48;10.10;99.90
25753;DHT22;13600;50.816;4.416;2023-04-25T03:52:17;10.20;99.90
25753;DHT22;13600;50.816;4.416;2023-04-25T03:54:42;10.20;99.90
25753;DHT22;13600;50.816;4.416;2023-04-25T03:57:08;10.00;99.90
25753;DHT22;13600;50.816;4.416;2023-04-25T03:59:35;10.10;99.90
25753;DHT22;13600;50.816;4.416;2023-04-25T04:02:01;10.00;99.90
25753;DHT22;13600;50.816;4.416;2023-04-25T04:04:26;10.10;99.90
25753;DHT22;13600;50.816;4.416;2023-04-25T04:06:52;10.20;99.90
25753;DHT22;13600;50.816;4.416;2023-04-25T04:09:17;10.10;99.90
25753;DHT22;13600;50.816;4.416;2023-04-25T04:11:43;9.90;99.90
25753;DHT22;13600;50.816;4.416;2023-04-25T04:14:09;10.00;99.90
25753;DHT22;13600;50.816;4.416;2023-04-25T04:16:35;10.10;99.90
25753;DHT22;13600;50.816;4.416;2023-04-25T04:19:02;10.30;99.90
25753;DHT22;13600;50.816;4.416;2023-04-25T04:21:28;10.40;99.90
25753;DHT22;13600;50.816;4.416;2023-04-25T04:23:54;10.50;99.90
25753;DHT22;13600;50.816;4.416;2023-04-25T04:26:20;10.80;99.90
25753;DHT22;13600;50.816;4.416;2023-04-25T04:28:49;10.80;99.90
25753;DHT22;13600;50.816;4.416;2023-04-25T04:31:16;10.80;99.90
25753;DHT22;13600;50.816;4.416;2023-04-25T04:33:43;10.90;99.90
25753;DHT22;13600;50.816;4.416;2023-04-25T04:36:09;10.50;99.90
25753;DHT22;13600;50.816;4.416;2023-04-25T04:38:36;10.50;99.90
25753;DHT22;13600;50.816;4.416;2023-04-25T04:41:02;10.50;99.90
25753;DHT22;13600;50.816;4.416;2023-04-25T04:43:28;10.40;99.90
25753;DHT22;13600;50.816;4.416;2023-04-25T04:45:55;10.30;99.90
25753;DHT22;13600;50.816;4.416;2023-04-25T04:48:21;10.20;99.90
25753;DHT22;13600;50.816;4.416;2023-04-25T04:50:47;10.30;99.90
25753;DHT22;13600;50.816;4.416;2023-04-25T04:53:13;10.30;99.90
25753;DHT22;13600;50.816;4.416;2023-04-25T04:55:39;10.60;99.90
25753;DHT22;13600;50.816;4.416;2023-04-25T04:58:06;10.70;99.90
25753;DHT22;13600;50.816;4.416;2023-04-25T05:00:32;10.70;99.90
25753;DHT22;13600;50.816;4.416;2023-04-25T05:02:58;10.60;99.90
25753;DHT22;13600;50.816;4.416;2023-04-25T05:05:26;10.50;99.90
25753;DHT22;13600;50.816;4.416;2023-04-25T05:07:51;10.50;99.90
25753;DHT22;13600;50.816;4.416;2023-04-25T05:10:17;10.50;99.90
25753;DHT22;13600;50.816;4.416;2023-04-25T05:12:43;10.50;99.90
25753;DHT22;13600;50.816;4.416;2023-04-25T05:15:09;10.20;99.90
25753;DHT22;13600;50.816;4.416;2023-04-25T05:17:35;9.80;99.90
25753;DHT22;13600;50.816;4.416;2023-04-25T05:20:00;9.70;99.90
25753;DHT22;13600;50.816;4.416;2023-04-25T05:22:26;9.60;99.90
25753;DHT22;13600;50.816;4.416;2023-04-25T05:24:51;9.70;99.90
25753;DHT22;13600;50.816;4.416;2023-04-25T05:27:18;9.70;99.90
25753;DHT22;13600;50.816;4.416;2023-04-25T05:29:44;10.10;99.90
25753;DHT22;13600;50.816;4.416;2023-04-25T05:32:10;10.30;99.90
25753;DHT22;13600;50.816;4.416;2023-04-25T05:34:35;10.20;99.90
25753;DHT22;13600;50.816;4.416;2023-04-25T05:37:01;9.70;99.90
25753;DHT22;13600;50.816;4.416;2023-04-25T05:39:26;9.70;99.90
25753;DHT22;13600;50.816;4.416;2023-04-25T05:41:52;9.80;99.90
25753;DHT22;13600;50.816;4.416;2023-04-25T05:44:18;10.10;99.90
25753;DHT22;13600;50.816;4.416;2023-04-25T05:46:44;10.20;99.90
25753;DHT22;13600;50.816;4.416;2023-04-25T05:49:10;10.30;99.90
25753;DHT22;13600;50.816;4.416;2023-04-25T05:51:36;10.00;99.90
25753;DHT22;13600;50.816;4.416;2023-04-25T05:54:01;10.00;99.90
25753;DHT22;13600;50.816;4.416;2023-04-25T05:56:27;10.00;99.90
25753;DHT22;13600;50.816;4.416;2023-04-25T05:58:52;10.10;99.90
25753;DHT22;13600;50.816;4.416;2023-04-25T06:01:18;10.10;99.90
25753;DHT22;13600;50.816;4.416;2023-04-25T06:03:44;10.30;99.90
25753;DHT22;13600;50.816;4.416;2023-04-25T06:06:11;10.50;99.90
25753;DHT22;13600;50.816;4.416;2023-04-25T06:08:36;10.50;99.90
25753;DHT22;13600;50.816;4.416;2023-04-25T06:11:03;10.60;99.90
25753;DHT22;13600;50.816;4.416;2023-04-25T06:13:28;10.60;99.90
25753;DHT22;13600;50.816;4.416;2023-04-25T06:15:54;10.70;99.90
25753;DHT22;13600;50.816;4.416;2023-04-25T06:18:19;10.80;99.90
25753;DHT22;13600;50.816;4.416;2023-04-25T06:20:45;10.90;99.90
25753;DHT22;13600;50.816;4.416;2023-04-25T06:23:11;10.90;99.90
25753;DHT22;13600;50.816;4.416;2023-04-25T06:25:37;10.80;99.90
25753;DHT22;13600;50.816;4.416;2023-04-25T06:28:02;10.90;99.90
25753;DHT22;13600;50.816;4.416;2023-04-25T06:30:28;10.70;99.90
25753;DHT22;13600;50.816;4.416;2023-04-25T06:32:53;10.60;99.90
25753;DHT22;13600;50.816;4.416;2023-04-25T06:35:19;10.30;99.90
25753;DHT22;13600;50.816;4.416;2023-04-25T06:37:45;10.30;99.90
25753;DHT22;13600;50.816;4.416;2023-04-25T06:40:10;10.50;99.90
25753;DHT22;13600;50.816;4.416;2023-04-25T06:42:38;10.70;99.90
25753;DHT22;13600;50.816;4.416;2023-04-25T06:45:03;10.60;99.90
25753;DHT22;13600;50.816;4.416;2023-04-25T06:47:29;10.60;99.90
25753;DHT22;13600;50.816;4.416;2023-04-25T06:49:55;10.60;99.90
25753;DHT22;13600;50.816;4.416;2023-04-25T06:52:20;10.70;99.90
25753;DHT22;13600;50.816;4.416;2023-04-25T06:54:46;10.80;99.90
25753;DHT22;13600;50.816;4.416;2023-04-25T06:57:11;10.70;99.90
25753;DHT22;13600;50.816;4.416;2023-04-25T06:59:37;10.60;99.90
25753;DHT22;13600;50.816;4.416;2023-04-25T07:02:02;10.60;99.90
25753;DHT22;13600;50.816;4.416;2023-04-25T07:04:28;10.50;99.90
25753;DHT22;13600;50.816;4.416;2023-04-25T07:06:56;10.30;99.90
25753;DHT22;13600;50.816;4.416;2023-04-25T07:09:22;10.30;99.90
25753;DHT22;13600;50.816;4.416;2023-04-25T07:11:47;10.30;99.90
25753;DHT22;13600;50.816;4.416;2023-04-25T07:14:13;10.30;99.90
25753;DHT22;13600;50.816;4.416;2023-04-25T07:16:38;10.30;99.90
25753;DHT22;13600;50.816;4.416;2023-04-25T07:19:04;10.30;99.90
25753;DHT22;13600;50.816;4.416;2023-04-25T07:21:29;10.50;99.90
25753;DHT22;13600;50.816;4.416;2023-04-25T07:23:56;10.90;99.90
25753;DHT22;13600;50.816;4.416;2023-04-25T07:26:22;10.90;99.90
25753;DHT22;13600;50.816;4.416;2023-04-25T07:28:47;10.90;99.90
25753;DHT22;13600;50.816;4.416;2023-04-25T07:31:16;10.90;99.90
25753;DHT22;13600;50.816;4.416;2023-04-25T07:33:43;10.60;99.90
25753;DHT22;13600;50.816;4.416;2023-04-25T07:36:10;10.50;99.90
25753;DHT22;13600;50.816;4.416;2023-04-25T07:38:36;10.70;99.90
25753;DHT22;13600;50.816;4.416;2023-04-25T07:41:02;10.60;99.90
25753;DHT22;13600;50.816;4.416;2023-04-25T07:43:27;11.00;99.90
25753;DHT22;13600;50.816;4.416;2023-04-25T07:45:53;11.40;99.90
25753;DHT22;13600;50.816;4.416;2023-04-25T07:48:18;11.40;99.90
25753;DHT22;13600;50.816;4.416;2023-04-25T07:50:44;11.50;99.90
25753;DHT22;13600;50.816;4.416;2023-04-25T07:53:09;11.80;99.90
25753;DHT22;13600;50.816;4.416;2023-04-25T07:55:35;11.70;99.90
25753;DHT22;13600;50.816;4.416;2023-04-25T07:58:01;11.40;99.90
25753;DHT22;13600;50.816;4.416;2023-04-25T08:00:28;11.20;99.90
25753;DHT22;13600;50.816;4.416;2023-04-25T08:02:54;11.50;99.90
25753;DHT22;13600;50.816;4.416;2023-04-25T08:05:20;11.40;99.90
25753;DHT22;13600;50.816;4.416;2023-04-25T08:07:45;11.50;99.90
25753;DHT22;13600;50.816;4.416;2023-04-25T08:10:11;11.70;99.90
25753;DHT22;13600;50.816;4.416;2023-04-25T08:12:36;11.70;99.90
25753;DHT22;13600;50.816;4.416;2023-04-25T08:15:03;11.80;99.90
25753;DHT22;13600;50.816;4.416;2023-04-25T08:17:29;12.00;99.90
25753;DHT22;13600;50.816;4.416;2023-04-25T08:19:54;12.30;99.90
25753;DHT22;13600;50.816;4.416;2023-04-25T08:22:20;12.50;99.90
25753;DHT22;13600;50.816;4.416;2023-04-25T08:24:46;12.90;99.90
25753;DHT22;13600;50.816;4.416;2023-04-25T08:27:11;13.20;99.90
25753;DHT22;13600;50.816;4.416;2023-04-25T08:29:37;13.60;99.90
25753;DHT22;13600;50.816;4.416;2023-04-25T08:32:03;13.70;99.90
25753;DHT22;13600;50.816;4.416;2023-04-25T08:34:28;13.90;99.90
25753;DHT22;13600;50.816;4.416;2023-04-25T08:36:54;13.90;99.90
25753;DHT22;13600;50.816;4.416;2023-04-25T08:39:19;13.80;99.90
25753;DHT22;13600;50.816;4.416;2023-04-25T08:41:46;13.40;99.90
25753;DHT22;13600;50.816;4.416;2023-04-25T08:44:13;13.30;99.90
25753;DHT22;13600;50.816;4.416;2023-04-25T08:46:39;12.90;99.90
25753;DHT22;13600;50.816;4.416;2023-04-25T08:49:06;12.50;99.90
25753;DHT22;13600;50.816;4.416;2023-04-25T08:51:32;12.20;99.90
25753;DHT22;13600;50.816;4.416;2023-04-25T08:54:01;11.80;99.90
25753;DHT22;13600;50.816;4.416;2023-04-25T08:56:32;12.00;99.90
25753;DHT22;13600;50.816;4.416;2023-04-25T08:59:00;14.90;99.90
25753;DHT22;13600;50.816;4.416;2023-04-25T09:01:26;17.70;99.90
25753;DHT22;13600;50.816;4.416;2023-04-25T09:03:52;20.70;97.20
25753;DHT22;13600;50.816;4.416;2023-04-25T09:06:17;22.50;87.00
25753;DHT22;13600;50.816;4.416;2023-04-25T09:08:44;21.00;84.00
25753;DHT22;13600;50.816;4.416;2023-04-25T09:11:10;21.30;84.60
25753;DHT22;13600;50.816;4.416;2023-04-25T09:13:35;20.40;85.20
25753;DHT22;13600;50.816;4.416;2023-04-25T09:16:01;18.40;90.20
25753;DHT22;13600;50.816;4.416;2023-04-25T09:18:30;16.90;93.60
25753;DHT22;13600;50.816;4.416;2023-04-25T09:20:57;16.30;96.70
25753;DHT22;13600;50.816;4.416;2023-04-25T09:23:23;15.90;97.70
25753;DHT22;13600;50.816;4.416;2023-04-25T09:25:52;15.50;99.40
25753;DHT22;13600;50.816;4.416;2023-04-25T09:28:25;14.60;99.90
25753;DHT22;13600;50.816;4.416;2023-04-25T09:30:55;14.60;99.90
25753;DHT22;13600;50.816;4.416;2023-04-25T09:33:23;14.80;99.90
25753;DHT22;13600;50.816;4.416;2023-04-25T09:35:52;14.50;99.90
25753;DHT22;13600;50.816;4.416;2023-04-25T09:38:20;14.20;99.90
25753;DHT22;13600;50.816;4.416;2023-04-25T09:40:46;14.10;99.90
25753;DHT22;13600;50.816;4.416;2023-04-25T09:43:21;13.60;99.90
25753;DHT22;13600;50.816;4.416;2023-04-25T09:45:47;13.50;99.90
25753;DHT22;13600;50.816;4.416;2023-04-25T09:48:19;14.00;99.90
25753;DHT22;13600;50.816;4.416;2023-04-25T09:50:47;14.60;99.90
25753;DHT22;13600;50.816;4.416;2023-04-25T09:53:28;15.50;99.90
25753;DHT22;13600;50.816;4.416;2023-04-25T09:55:54;17.10;98.80
25753;DHT22;13600;50.816;4.416;2023-04-25T09:58:20;17.30;97.50
25753;DHT22;13600;50.816;4.416;2023-04-25T10:00:46;17.60;98.40
25753;DHT22;13600;50.816;4.416;2023-04-25T10:03:12;17.60;97.40
25753;DHT22;13600;50.816;4.416;2023-04-25T10:05:38;17.60;95.90
25753;DHT22;13600;50.816;4.416;2023-04-25T10:08:04;19.30;93.60
25753;DHT22;13600;50.816;4.416;2023-04-25T10:10:30;20.30;91.40
25753;DHT22;13600;50.816;4.416;2023-04-25T10:13:02;22.80;85.90
25753;DHT22;13600;50.816;4.416;2023-04-25T10:15:28;24.00;75.60
25753;DHT22;13600;50.816;4.416;2023-04-25T10:17:54;22.70;73.80
25753;DHT22;13600;50.816;4.416;2023-04-25T10:20:21;21.70;77.20
25753;DHT22;13600;50.816;4.416;2023-04-25T10:22:48;21.60;78.10
25753;DHT22;13600;50.816;4.416;2023-04-25T10:25:19;20.70;77.00
25753;DHT22;13600;50.816;4.416;2023-04-25T10:27:45;20.10;77.40
25753;DHT22;13600;50.816;4.416;2023-04-25T10:30:13;21.10;75.80
25753;DHT22;13600;50.816;4.416;2023-04-25T10:32:43;22.00;73.10
25753;DHT22;13600;50.816;4.416;2023-04-25T10:35:23;24.20;71.00
25753;DHT22;13600;50.816;4.416;2023-04-25T10:38:05;27.60;63.50
25753;DHT22;13600;50.816;4.416;2023-04-25T10:40:31;28.00;56.80
25753;DHT22;13600;50.816;4.416;2023-04-25T10:45:51;26.80;57.10
25753;DHT22;13600;50.816;4.416;2023-04-25T10:48:26;29.10;53.00
25753;DHT22;13600;50.816;4.416;2023-04-25T10:51:37;27.30;50.90
25753;DHT22;13600;50.816;4.416;2023-04-25T10:53:38;25.20;52.50
25753;DHT22;13600;50.816;4.416;2023-04-25T10:56:19;23.10;55.70
25753;DHT22;13600;50.816;4.416;2023-04-25T10:58:49;20.40;59.40
25753;DHT22;13600;50.816;4.416;2023-04-25T11:01:24;18.80;61.90
25753;DHT22;13600;50.816;4.416;2023-04-25T11:03:56;17.30;65.40
25753;DHT22;13600;50.816;4.416;2023-04-25T11:06:23;16.70;68.30
25753;DHT22;13600;50.816;4.416;2023-04-25T11:08:51;16.40;70.10
25753;DHT22;13600;50.816;4.416;2023-04-25T11:11:17;16.40;72.00
25753;DHT22;13600;50.816;4.416;2023-04-25T11:13:43;15.90;74.00
25753;DHT22;13600;50.816;4.416;2023-04-25T11:16:08;15.20;76.50
25753;DHT22;13600;50.816;4.416;2023-04-25T11:18:34;15.10;78.50
25753;DHT22;13600;50.816;4.416;2023-04-25T11:20:59;14.90;82.00
25753;DHT22;13600;50.816;4.416;2023-04-25T11:23:25;14.70;89.90
25753;DHT22;13600;50.816;4.416;2023-04-25T11:25:53;14.70;93.20
25753;DHT22;13600;50.816;4.416;2023-04-25T11:28:22;14.30;94.90
25753;DHT22;13600;50.816;4.416;2023-04-25T11:30:48;14.30;95.80
25753;DHT22;13600;50.816;4.416;2023-04-25T11:33:15;14.70;95.80
25753;DHT22;13600;50.816;4.416;2023-04-25T11:35:41;14.80;94.90
25753;DHT22;13600;50.816;4.416;2023-04-25T11:38:06;14.80;95.30
25753;DHT22;13600;50.816;4.416;2023-04-25T11:40:32;15.20;94.10
25753;DHT22;13600;50.816;4.416;2023-04-25T11:42:59;15.60;93.60
25753;DHT22;13600;50.816;4.416;2023-04-25T11:45:24;15.80;92.40
25753;DHT22;13600;50.816;4.416;2023-04-25T11:47:50;16.40;92.30
25753;DHT22;13600;50.816;4.416;2023-04-25T11:50:16;17.60;91.60
25753;DHT22;13600;50.816;4.416;2023-04-25T11:52:45;18.90;84.60
25753;DHT22;13600;50.816;4.416;2023-04-25T11:55:15;21.00;80.20
25753;DHT22;13600;50.816;4.416;2023-04-25T11:57:43;22.40;72.50
25753;DHT22;13600;50.816;4.416;2023-04-25T12:00:11;21.40;72.40
25753;DHT22;13600;50.816;4.416;2023-04-25T12:02:40;20.90;72.50
25753;DHT22;13600;50.816;4.416;2023-04-25T12:05:07;21.50;72.70
25753;DHT22;13600;50.816;4.416;2023-04-25T12:07:33;21.30;68.40
25753;DHT22;13600;50.816;4.416;2023-04-25T12:10:03;22.10;70.50
25753;DHT22;13600;50.816;4.416;2023-04-25T12:12:32;25.40;64.80
25753;DHT22;13600;50.816;4.416;2023-04-25T12:15:07;26.50;57.70
25753;DHT22;13600;50.816;4.416;2023-04-25T12:17:33;25.50;58.00
25753;DHT22;13600;50.816;4.416;2023-04-25T12:19:59;27.00;56.40
25753;DHT22;13600;50.816;4.416;2023-04-25T12:22:25;27.50;54.60
25753;DHT22;13600;50.816;4.416;2023-04-25T12:24:50;26.40;52.20
25753;DHT22;13600;50.816;4.416;2023-04-25T12:27:18;27.30;52.20
25753;DHT22;13600;50.816;4.416;2023-04-25T12:29:50;25.60;53.50
25753;DHT22;13600;50.816;4.416;2023-04-25T12:32:16;24.00;56.00
25753;DHT22;13600;50.816;4.416;2023-04-25T12:34:42;22.70;56.80
25753;DHT22;13600;50.816;4.416;2023-04-25T12:37:08;20.70;58.30
25753;DHT22;13600;50.816;4.416;2023-04-25T12:39:34;19.80;58.70
25753;DHT22;13600;50.816;4.416;2023-04-25T12:42:00;18.80;61.30
25753;DHT22;13600;50.816;4.416;2023-04-25T12:44:26;18.10;63.90
25753;DHT22;13600;50.816;4.416;2023-04-25T12:46:51;17.70;65.70
25753;DHT22;13600;50.816;4.416;2023-04-25T12:49:17;17.40;64.60
25753;DHT22;13600;50.816;4.416;2023-04-25T12:51:43;17.20;65.50
25753;DHT22;13600;50.816;4.416;2023-04-25T12:54:08;16.90;64.80
25753;DHT22;13600;50.816;4.416;2023-04-25T12:56:34;17.10;66.50
25753;DHT22;13600;50.816;4.416;2023-04-25T12:59:00;17.40;67.90
25753;DHT22;13600;50.816;4.416;2023-04-25T13:01:26;18.90;65.90
25753;DHT22;13600;50.816;4.416;2023-04-25T13:03:52;20.70;61.50
25753;DHT22;13600;50.816;4.416;2023-04-25T13:06:18;23.20;58.60
25753;DHT22;13600;50.816;4.416;2023-04-25T13:08:44;23.10;56.50
25753;DHT22;13600;50.816;4.416;2023-04-25T13:11:10;21.90;56.70
25753;DHT22;13600;50.816;4.416;2023-04-25T13:13:36;19.90;60.30
25753;DHT22;13600;50.816;4.416;2023-04-25T13:16:03;18.90;63.80
25753;DHT22;13600;50.816;4.416;2023-04-25T13:18:29;18.00;68.40
25753;DHT22;13600;50.816;4.416;2023-04-25T13:20:55;17.30;71.20
25753;DHT22;13600;50.816;4.416;2023-04-25T13:23:21;17.00;72.90
25753;DHT22;13600;50.816;4.416;2023-04-25T13:25:47;17.20;73.00
25753;DHT22;13600;50.816;4.416;2023-04-25T13:28:12;17.10;70.80
25753;DHT22;13600;50.816;4.416;2023-04-25T13:30:38;16.70;71.30
25753;DHT22;13600;50.816;4.416;2023-04-25T13:33:04;16.90;71.30
25753;DHT22;13600;50.816;4.416;2023-04-25T13:35:32;18.50;72.20
25753;DHT22;13600;50.816;4.416;2023-04-25T13:37:58;20.50;65.00
25753;DHT22;13600;50.816;4.416;2023-04-25T13:40:23;22.10;61.40
25753;DHT22;13600;50.816;4.416;2023-04-25T13:42:49;22.90;58.80
25753;DHT22;13600;50.816;4.416;2023-04-25T13:45:14;23.80;56.10
25753;DHT22;13600;50.816;4.416;2023-04-25T13:47:40;24.40;55.00
25753;DHT22;13600;50.816;4.416;2023-04-25T13:50:06;25.20;54.20
25753;DHT22;13600;50.816;4.416;2023-04-25T13:52:32;25.50;53.20
25753;DHT22;13600;50.816;4.416;2023-04-25T13:54:58;25.90;52.80
25753;DHT22;13600;50.816;4.416;2023-04-25T13:57:23;25.00;49.60
25753;DHT22;13600;50.816;4.416;2023-04-25T13:59:50;23.60;50.80
25753;DHT22;13600;50.816;4.416;2023-04-25T14:02:15;23.00;53.10
25753;DHT22;13600;50.816;4.416;2023-04-25T14:04:41;22.60;53.90
25753;DHT22;13600;50.816;4.416;2023-04-25T14:07:06;20.90;56.70
25753;DHT22;13600;50.816;4.416;2023-04-25T14:09:32;20.00;59.60
25753;DHT22;13600;50.816;4.416;2023-04-25T14:11:57;19.40;63.00
25753;DHT22;13600;50.816;4.416;2023-04-25T14:14:23;19.20;64.00
25753;DHT22;13600;50.816;4.416;2023-04-25T14:16:49;18.50;66.00
25753;DHT22;13600;50.816;4.416;2023-04-25T14:19:18;17.90;67.70
25753;DHT22;13600;50.816;4.416;2023-04-25T14:21:43;17.50;68.60
25753;DHT22;13600;50.816;4.416;2023-04-25T14:24:09;17.60;70.10
25753;DHT22;13600;50.816;4.416;2023-04-25T14:26:36;19.40;66.70
25753;DHT22;13600;50.816;4.416;2023-04-25T14:29:02;20.20;62.10
25753;DHT22;13600;50.816;4.416;2023-04-25T14:31:28;21.10;60.10
25753;DHT22;13600;50.816;4.416;2023-04-25T14:33:53;21.00;57.30
25753;DHT22;13600;50.816;4.416;2023-04-25T14:36:19;21.70;57.40
25753;DHT22;13600;50.816;4.416;2023-04-25T14:38:45;23.10;57.60
25753;DHT22;13600;50.816;4.416;2023-04-25T14:41:11;23.50;54.50
25753;DHT22;13600;50.816;4.416;2023-04-25T14:43:38;24.20;53.20
25753;DHT22;13600;50.816;4.416;2023-04-25T14:46:06;23.70;52.40
25753;DHT22;13600;50.816;4.416;2023-04-25T14:48:31;22.70;53.70
25753;DHT22;13600;50.816;4.416;2023-04-25T14:50:57;23.10;53.60
25753;DHT22;13600;50.816;4.416;2023-04-25T14:53:23;21.80;54.20
25753;DHT22;13600;50.816;4.416;2023-04-25T14:55:48;20.80;54.80
25753;DHT22;13600;50.816;4.416;2023-04-25T14:58:14;19.70;56.50
25753;DHT22;13600;50.816;4.416;2023-04-25T15:00:40;19.00;57.20
25753;DHT22;13600;50.816;4.416;2023-04-25T15:03:06;18.80;59.50
25753;DHT22;13600;50.816;4.416;2023-04-25T15:05:33;19.00;60.70
25753;DHT22;13600;50.816;4.416;2023-04-25T15:08:00;17.90;63.30
25753;DHT22;13600;50.816;4.416;2023-04-25T15:10:26;17.90;66.10
25753;DHT22;13600;50.816;4.416;2023-04-25T15:12:52;18.70;65.10
25753;DHT22;13600;50.816;4.416;2023-04-25T15:15:20;20.50;61.80
25753;DHT22;13600;50.816;4.416;2023-04-25T15:17:45;20.90;58.00
25753;DHT22;13600;50.816;4.416;2023-04-25T15:20:11;21.30;56.00
25753;DHT22;13600;50.816;4.416;2023-04-25T15:22:39;20.70;56.90
25753;DHT22;13600;50.816;4.416;2023-04-25T15:25:05;20.90;56.60
25753;DHT22;13600;50.816;4.416;2023-04-25T15:27:33;20.90;57.40
25753;DHT22;13600;50.816;4.416;2023-04-25T15:29:58;20.40;57.20